Time;durP1;ratioP1;P1;durP2;ratioP2;P2;SDS_P1;SDS_P2;PMS_P1;PMS_P2;Temp;Humidity;BMP_temperature;BMP_pressure;BME280_temperature;BME280_humidity;BME280_pressure;Samples;Min_cycle;Max_cycle;Signal;HPM_P1;HPM_P2
2022/08/28 00:00:50;;;;;;;11.97;5.80;;;;;;;-141.28;100.00;50699.22;5105672;28;20223;-77
2022/08/28 00:03:20;;;;;;;12.10;5.50;;;;;;;-141.28;100.00;50722.78;5093266;28;20234;-74
2022/08/28 00:05:49;;;;;;;12.30;5.50;;;;;;;-141.28;100.00;50714.94;5092455;28;20716;-75
2022/08/28 00:08:17;;;;;;;15.80;5.43;;;;;;;-141.28;100.00;50718.88;5090677;28;20637;-76
2022/08/28 00:10:44;;;;;;;9.83;5.53;;;;;;;-141.28;100.00;50813.09;5101225;28;20225;-75
2022/08/28 00:13:17;;;;;;;13.17;5.80;;;;;;;-141.28;100.00;50765.97;5083008;28;20549;-76
2022/08/28 00:15:48;;;;;;;9.50;6.43;;;;;;;-141.28;100.00;50803.28;5093499;28;20315;-76
2022/08/28 00:18:17;;;;;;;11.63;5.50;;;;;;;-141.28;100.00;50797.38;5081543;28;20203;-74
2022/08/28 00:20:46;;;;;;;9.57;6.07;;;;;;;-141.28;100.00;50815.06;5092927;28;20674;-76
2022/08/28 00:23:13;;;;;;;8.93;6.10;;;;;;;-141.28;100.00;50803.28;5093234;28;20199;-77
2022/08/28 00:25:40;;;;;;;9.37;5.80;;;;;;;-141.28;100.00;50824.88;5100792;28;20199;-76
2022/08/28 00:28:09;;;;;;;17.57;5.87;;;;;;;-141.28;100.00;50836.66;5097729;28;20195;-75
2022/08/28 00:30:39;;;;;;;10.97;5.70;;;;;;;-141.28;100.00;50813.09;5085537;28;20542;-76
2022/08/28 00:33:09;;;;;;;13.23;5.53;;;;;;;-141.28;100.00;50828.78;5089258;28;20204;-75
2022/08/28 00:35:37;;;;;;;15.77;7.33;;;;;;;-141.28;100.00;50862.16;5078105;28;20200;-76
2022/08/28 00:38:06;;;;;;;11.90;5.40;;;;;;;-141.28;100.00;50828.78;5072557;28;20303;-75
2022/08/28 00:40:34;;;;;;;10.90;5.87;;;;;;;-141.28;100.00;50864.13;5073391;28;20192;-76
2022/08/28 00:43:02;;;;;;;17.50;6.53;;;;;;;-141.28;100.00;50832.72;5072660;28;20227;-75
2022/08/28 00:45:30;;;;;;;13.90;6.00;;;;;;;-141.28;100.00;50852.34;5090170;28;20192;-77
2022/08/28 00:47:57;;;;;;;13.57;5.90;;;;;;;-141.28;100.00;50938.72;5082764;28;20675;-77
2022/08/28 00:50:29;;;;;;;14.70;6.40;;;;;;;-141.28;100.00;50820.94;5089530;28;20570;-75
2022/08/28 00:53:17;;;;;;;9.50;5.63;;;;;;;-141.28;100.00;50891.63;5077153;28;20685;-75
2022/08/28 00:55:44;;;;;;;13.50;5.73;;;;;;;-141.28;100.00;50830.75;5085619;28;20214;-75
2022/08/28 00:58:12;;;;;;;9.27;5.30;;;;;;;-141.28;100.00;50848.44;5085333;28;20207;-75
2022/08/28 01:00:40;;;;;;;12.17;5.93;;;;;;;-141.28;100.00;50852.34;5072261;28;20204;-76
2022/08/28 01:03:08;;;;;;;17.67;6.13;;;;;;;-141.28;100.00;50850.38;5071815;28;20223;-75
2022/08/28 01:05:36;;;;;;;14.87;5.97;;;;;;;-141.28;100.00;50844.50;5086709;28;20191;-76
2022/08/28 01:08:04;;;;;;;14.90;6.27;;;;;;;-141.28;100.00;50817.03;5104136;28;20196;-76
2022/08/28 01:10:34;;;;;;;13.23;6.33;;;;;;;-141.28;100.00;50844.50;5104504;28;20202;-76
2022/08/28 01:13:03;;;;;;;12.27;6.37;;;;;;;-141.28;100.00;50836.66;5091680;28;20195;-75
2022/08/28 01:15:34;;;;;;;11.93;5.90;;;;;;;-141.28;100.00;50832.72;5104084;28;20230;-76
2022/08/28 01:18:04;;;;;;;11.63;6.33;;;;;;;-141.28;100.00;50805.25;5091944;28;20192;-75
2022/08/28 01:20:35;;;;;;;9.57;5.97;;;;;;;-141.28;100.00;50781.69;5073791;28;20218;-75
2022/08/28 01:23:09;;;;;;;17.33;6.57;;;;;;;-141.28;100.00;50813.09;5090105;28;20227;-76
2022/08/28 01:25:39;;;;;;;15.17;6.30;;;;;;;-141.28;100.00;50793.47;5075772;28;20553;-75
2022/08/28 01:28:11;;;;;;;13.30;6.67;;;;;;;-141.28;100.00;50754.19;5091744;28;20234;-75
2022/08/28 01:30:38;;;;;;;13.60;6.33;;;;;;;-141.28;100.00;50781.69;5092060;28;20257;-76
2022/08/28 01:33:06;;;;;;;21.03;6.77;;;;;;;-141.28;100.00;50754.19;5057102;28;20295;-75
2022/08/28 01:35:39;;;;;;;13.23;7.07;;;;;;;-141.28;100.00;50730.66;5072121;28;20200;-76
2022/08/28 01:38:07;;;;;;;13.67;6.73;;;;;;;-141.28;100.00;50750.28;5073756;28;20220;-75
2022/08/28 01:40:45;;;;;;;14.53;6.77;;;;;;;-141.28;100.00;50746.34;5100069;28;20650;-76
2022/08/28 01:43:14;;;;;;;13.23;6.53;;;;;;;-141.28;100.00;50781.69;5097711;28;20222;-75
2022/08/28 01:45:45;;;;;;;14.17;6.40;;;;;;;-141.28;100.00;50718.88;5100998;28;20195;-75
2022/08/28 01:48:14;;;;;;;11.03;5.93;;;;;;;-141.28;100.00;50785.59;5103968;28;20257;-74
2022/08/28 01:50:42;;;;;;;19.10;6.43;;;;;;;-141.28;100.00;50769.91;5092054;28;20199;-75
2022/08/28 01:53:12;;;;;;;15.80;6.50;;;;;;;-141.28;100.00;50793.47;5104068;28;20294;-76
2022/08/28 01:55:42;;;;;;;10.73;6.00;;;;;;;-141.28;100.00;50756.16;5091114;28;20282;-77
2022/08/28 01:58:10;;;;;;;16.37;7.23;;;;;;;-141.28;100.00;50758.13;5079455;28;20196;-75
2022/08/28 02:00:40;;;;;;;11.37;6.97;;;;;;;-141.28;100.00;50730.66;5088082;28;20194;-75
2022/08/28 02:03:07;;;;;;;16.00;6.57;;;;;;;-141.28;100.00;50701.19;5095613;28;20271;-76
2022/08/28 02:05:35;;;;;;;12.97;6.13;;;;;;;-141.28;100.00;50750.28;5075600;28;20201;-76
2022/08/28 02:08:04;;;;;;;16.13;6.67;;;;;;;-141.28;100.00;50734.56;5076490;28;20219;-76
2022/08/28 02:10:34;;;;;;;9.67;6.13;;;;;;;-141.28;100.00;50703.16;5095759;28;20203;-75
2022/08/28 02:13:03;;;;;;;14.20;6.67;;;;;;;-141.28;100.00;50687.47;5102623;28;20195;-75
2022/08/28 02:15:33;;;;;;;18.17;7.23;;;;;;;-141.28;100.00;50711.00;5087763;28;20232;-75
2022/08/28 02:18:01;;;;;;;14.47;6.30;;;;;;;-141.28;100.00;50714.94;5083596;28;20196;-76
2022/08/28 02:20:29;;;;;;;13.57;5.97;;;;;;;-141.28;100.00;50756.16;5091856;28;20196;-76
2022/08/28 02:22:57;;;;;;;10.23;6.40;;;;;;;-141.28;100.00;50724.75;5089764;28;20604;-75
2022/08/28 02:25:24;;;;;;;11.90;6.07;;;;;;;-141.28;100.00;50734.56;5090269;28;20207;-75
2022/08/28 02:27:52;;;;;;;14.53;6.13;;;;;;;-141.28;100.00;50760.09;5085457;28;20199;-75
2022/08/28 02:30:23;;;;;;;15.40;6.93;;;;;;;-141.28;100.00;50722.78;5090430;28;20673;-76
2022/08/28 02:32:51;;;;;;;10.37;6.30;;;;;;;-141.28;100.00;50709.06;5108180;28;20195;-76
2022/08/28 02:35:22;;;;;;;11.13;6.10;;;;;;;-141.28;100.00;50663.91;5087137;28;20693;-76
2022/08/28 02:37:51;;;;;;;14.63;6.87;;;;;;;-141.28;100.00;50669.78;5097907;28;20215;-74
2022/08/28 02:40:22;;;;;;;13.07;7.27;;;;;;;-141.28;100.00;50659.97;5105781;28;20188;-75
2022/08/28 02:42:49;;;;;;;13.17;6.80;;;;;;;-141.28;100.00;50620.72;5093916;28;20220;-74
2022/08/28 02:45:18;;;;;;;15.53;6.90;;;;;;;-141.28;100.00;50605.00;5101017;28;20342;-76
2022/08/28 02:47:48;;;;;;;20.17;7.30;;;;;;;-141.28;100.00;50577.53;5091917;28;20279;-76
2022/08/28 02:50:18;;;;;;;13.40;6.10;;;;;;;-141.28;100.00;50536.31;5094460;28;20654;-74
2022/08/28 02:52:46;;;;;;;14.67;6.13;;;;;;;-141.28;100.00;50506.88;5087428;28;20203;-74
2022/08/28 02:55:15;;;;;;;13.60;5.77;;;;;;;-141.28;100.00;50465.66;5074388;28;20246;-75
2022/08/28 02:57:43;;;;;;;14.50;6.23;;;;;;;-141.28;100.00;50455.84;5074157;28;20201;-74
2022/08/28 03:00:13;;;;;;;11.53;6.27;;;;;;;-141.28;100.00;50447.97;5083971;28;20204;-76
2022/08/28 03:02:44;;;;;;;11.20;6.50;;;;;;;-141.28;100.00;50434.25;5093948;28;20223;-75
2022/08/28 03:05:15;;;;;;;12.70;6.33;;;;;;;-141.28;100.00;50473.50;5094531;28;20199;-75
2022/08/28 03:07:43;;;;;;;11.47;6.40;;;;;;;-141.28;100.00;50394.97;5076258;28;20204;-76
2022/08/28 03:10:10;;;;;;;16.10;6.67;;;;;;;-141.28;100.00;50365.53;5056716;28;20207;-75
2022/08/28 03:12:39;;;;;;;15.63;6.20;;;;;;;-141.28;100.00;50330.22;5082583;28;20545;-76
2022/08/28 03:15:08;;;;;;;13.33;6.70;;;;;;;-141.28;100.00;50343.94;5101646;28;20694;-77
2022/08/28 03:17:36;;;;;;;9.27;6.53;;;;;;;-141.28;100.00;50353.75;5106223;28;20207;-77
2022/08/28 03:20:04;;;;;;;15.97;6.60;;;;;;;-141.28;100.00;50345.91;5093873;28;20643;-75
2022/08/28 03:25:18;;;;;;;14.03;6.17;;;;;;;-141.28;100.00;50377.31;5082282;28;20214;-75
2022/08/28 03:27:46;;;;;;;12.77;7.00;;;;;;;-141.28;100.00;50328.25;5110771;28;20554;-76
2022/08/28 03:30:14;;;;;;;16.03;6.47;;;;;;;-141.28;100.00;50294.88;5104869;28;20195;-75
2022/08/28 03:32:42;;;;;;;12.50;6.50;;;;;;;-141.28;100.00;50290.97;5091770;28;20654;-75
2022/08/28 03:35:10;;;;;;;13.73;6.57;;;;;;;-141.28;100.00;50232.06;5083218;28;20294;-76
2022/08/28 03:37:39;;;;;;;14.37;6.80;;;;;;;-141.28;100.00;50232.06;5096519;28;20217;-76
2022/08/28 03:40:08;;;;;;;24.83;7.50;;;;;;;-141.28;100.00;50183.00;5114044;28;20249;-75
2022/08/28 03:42:35;;;;;;;17.07;6.97;;;;;;;-141.28;100.00;50159.44;5087353;28;20226;-78
2022/08/28 03:45:03;;;;;;;19.97;7.43;;;;;;;-141.28;100.00;50124.13;5082201;28;20196;-75
2022/08/28 03:47:31;;;;;;;15.33;7.17;;;;;;;-141.28;100.00;50133.94;5090387;28;20196;-75
2022/08/28 03:49:58;;;;;;;10.20;7.17;;;;;;;-141.28;100.00;50090.75;5096722;28;20207;-76
2022/08/28 03:52:27;;;;;;;18.87;6.80;;;;;;;-141.28;100.00;50082.91;5106213;28;20698;-74
2022/08/28 03:54:56;;;;;;;15.77;7.00;;;;;;;-141.28;100.00;50078.97;5101286;28;20209;-75
2022/08/28 03:57:24;;;;;;;14.50;7.00;;;;;;;-141.28;100.00;50039.72;5111788;28;20228;-78
2022/08/28 03:59:53;;;;;;;15.93;7.30;;;;;;;-141.28;100.00;50012.25;5112975;28;20203;-76
2022/08/28 04:02:20;;;;;;;15.37;7.10;;;;;;;-141.28;100.00;49984.78;5093274;28;20220;-76
2022/08/28 04:04:48;;;;;;;13.90;6.67;;;;;;;-141.28;100.00;49943.56;5080689;28;20206;-75
2022/08/28 04:07:19;;;;;;;13.50;6.83;;;;;;;-141.28;100.00;49953.38;5076613;28;20641;-77
2022/08/28 04:09:48;;;;;;;20.67;7.47;;;;;;;-141.28;100.00;49986.75;5074252;28;20243;-76
2022/08/28 04:12:17;;;;;;;17.10;7.23;;;;;;;-141.28;100.00;49951.41;5083484;28;20662;-76
2022/08/28 04:14:45;;;;;;;14.10;7.10;;;;;;;-141.28;100.00;49939.63;5096670;28;20223;-75
2022/08/28 04:17:13;;;;;;;22.80;7.57;;;;;;;-141.28;100.00;49908.25;5091078;28;20196;-74
2022/08/28 04:19:44;;;;;;;18.13;6.90;;;;;;;-141.28;100.00;49912.16;5073157;28;20207;-75
2022/08/28 04:22:12;;;;;;;14.57;6.90;;;;;;;-141.28;100.00;49918.06;5073117;28;20223;-75
2022/08/28 04:24:40;;;;;;;14.70;7.40;;;;;;;-141.28;100.00;49914.13;5086746;28;20210;-75
2022/08/28 04:27:08;;;;;;;22.73;7.53;;;;;;;-141.28;100.00;49921.97;5079567;28;20191;-76
2022/08/28 04:29:36;;;;;;;17.40;7.67;;;;;;;-141.28;100.00;49976.94;5102837;28;20556;-75
2022/08/28 04:32:04;;;;;;;16.70;7.13;;;;;;;-141.28;100.00;49965.16;5085114;28;20208;-75
2022/08/28 04:34:31;;;;;;;15.43;7.57;;;;;;;-141.28;100.00;49965.16;5104563;28;20198;-76
2022/08/28 04:36:58;;;;;;;11.53;6.50;;;;;;;-141.28;100.00;49941.59;5098571;28;20219;-75
2022/08/28 04:39:27;;;;;;;9.30;6.50;;;;;;;-141.28;100.00;49939.63;5100695;28;20226;-75
2022/08/28 04:41:55;;;;;;;20.93;7.43;;;;;;;-141.28;100.00;49933.75;5073978;28;20192;-75
2022/08/28 04:44:22;;;;;;;16.33;7.10;;;;;;;-141.28;100.00;49933.75;5072329;28;20200;-77
2022/08/28 04:46:52;;;;;;;14.87;6.90;;;;;;;-141.28;100.00;49971.03;5073044;28;20659;-75
2022/08/28 04:49:19;;;;;;;23.77;7.77;;;;;;;-141.28;100.00;49996.56;5072547;28;20200;-76
2022/08/28 04:51:47;;;;;;;22.93;7.73;;;;;;;-141.28;100.00;50027.97;5085285;28;20546;-76
2022/08/28 04:54:14;;;;;;;22.07;7.57;;;;;;;-141.28;100.00;50077.03;5085480;28;20192;-76
2022/08/28 04:56:42;;;;;;;23.97;8.23;;;;;;;-141.28;100.00;50196.75;5072029;28;20674;-75
2022/08/28 04:59:11;;;;;;;23.60;7.40;;;;;;;-141.28;100.00;50267.41;5072232;28;20200;-76
2022/08/28 05:01:40;;;;;;;22.27;7.77;;;;;;;-141.28;100.00;50518.66;5072536;28;20253;-74
2022/08/28 05:04:12;;;;;;;23.20;8.13;;;;;;;-141.28;100.00;50593.22;5081395;28;20258;-75
2022/08/28 05:06:44;;;;;;;35.27;8.17;;;;;;;-141.28;100.00;50640.34;5092056;28;20199;-74
2022/08/28 05:09:13;;;;;;;24.57;8.20;;;;;;;-141.28;100.00;50691.38;5106907;28;20547;-75
2022/08/28 05:11:45;;;;;;;22.47;7.87;;;;;;;-141.28;100.00;50773.81;5105898;28;20642;-76
2022/08/28 05:14:13;;;;;;;15.67;7.40;;;;;;;-141.28;100.00;50868.06;5104506;28;20241;-76
2022/08/28 05:16:43;;;;;;;19.50;7.33;;;;;;;-141.28;100.00;50956.41;5098750;28;20196;-76
2022/08/28 05:19:12;;;;;;;13.73;6.30;;;;;;;-141.28;100.00;51009.41;5098611;28;20202;-75
2022/08/28 05:21:40;;;;;;;19.77;6.87;;;;;;;-141.28;100.00;51048.66;5079562;28;20237;-76
2022/08/28 05:24:07;;;;;;;10.80;6.97;;;;;;;-141.28;100.00;51089.91;5079867;28;20223;-76
2022/08/28 05:26:36;;;;;;;8.87;6.53;;;;;;;-141.28;100.00;51111.50;5099254;28;20206;-73
2022/08/28 05:29:05;;;;;;;11.97;6.60;;;;;;;-141.28;100.00;51172.34;5085135;28;20192;-77
2022/08/28 05:31:34;;;;;;;15.13;6.83;;;;;;;-141.28;100.00;51178.25;5084644;28;20231;-75
2022/08/28 05:34:03;;;;;;;10.23;6.43;;;;;;;-141.28;100.00;51252.84;5072081;28;20199;-74
2022/08/28 05:36:33;;;;;;;19.93;7.90;;;;;;;-141.28;100.00;51270.50;5071481;28;20212;-75
2022/08/28 05:39:04;;;;;;;14.63;8.43;;;;;;;-141.28;100.00;51207.69;5072644;28;20547;-75
2022/08/28 05:41:34;;;;;;;13.80;8.03;;;;;;;-141.28;100.00;51135.03;5091586;28;20661;-76
2022/08/28 05:44:03;;;;;;;15.20;8.60;;;;;;;-141.28;100.00;51123.28;5104060;28;20218;-75
2022/08/28 05:46:38;;;;;;;23.53;8.33;;;;;;;-141.28;100.00;51095.78;5099415;28;20194;-77
2022/08/28 05:49:06;;;;;;;28.50;7.53;;;;;;;-141.28;100.00;51123.28;5094819;28;20248;-78
2022/08/28 05:51:35;;;;;;;19.20;7.47;;;;;;;-141.28;100.00;51084.00;5100566;28;20230;-75
2022/08/28 05:54:07;;;;;;;25.40;7.23;;;;;;;-141.28;100.00;51070.25;5097169;28;20198;-77
2022/08/28 05:56:38;;;;;;;21.67;6.43;;;;;;;-141.28;100.00;51003.50;5099879;28;20199;-75
2022/08/28 05:59:08;;;;;;;10.37;6.93;;;;;;;-141.28;100.00;50976.03;5091013;28;20196;-76
2022/08/28 06:01:40;;;;;;;24.77;7.23;;;;;;;-141.28;100.00;50995.66;5103473;28;20342;-75
2022/08/28 06:04:11;;;;;;;17.47;7.70;;;;;;;-141.28;100.00;50962.28;5098241;28;20580;-73
2022/08/28 06:06:43;;;;;;;15.67;7.27;;;;;;;-141.28;100.00;50940.69;5097901;28;20191;-77
2022/08/28 06:09:14;;;;;;;19.27;8.70;;;;;;;-141.28;100.00;50903.41;5091767;28;20198;-76
2022/08/28 06:11:44;;;;;;;33.87;14.00;;;;;;;-141.28;100.00;50907.31;5097343;28;20570;-76
2022/08/28 06:14:12;;;;;;;33.30;12.77;;;;;;;-141.28;100.00;50887.69;5050060;28;20314;-76
2022/08/28 06:16:42;;;;;;;94.40;41.67;;;;;;;-141.28;100.00;50887.69;5051539;28;20262;-77
2022/08/28 06:19:12;;;;;;;60.53;28.40;;;;;;;-141.28;100.00;50879.84;5051599;28;20205;-76
2022/08/28 06:21:41;;;;;;;94.27;45.93;;;;;;;-141.28;100.00;50799.34;5050239;28;20216;-76
2022/08/28 06:24:10;;;;;;;59.10;31.67;;;;;;;-141.28;100.00;50762.06;5051377;28;20232;-76
2022/08/28 06:26:38;;;;;;;44.43;26.30;;;;;;;-141.28;100.00;50754.19;5050940;28;20281;-74
2022/08/28 06:29:08;;;;;;;29.73;19.10;;;;;;;-141.28;100.00;50683.53;5051154;28;20197;-76
2022/08/28 06:31:35;;;;;;;30.30;15.60;;;;;;;-141.28;100.00;50734.56;5037541;28;20255;-74
2022/08/28 06:34:04;;;;;;;15.20;8.17;;;;;;;-141.28;100.00;50632.50;5049537;28;20208;-76
2022/08/28 06:36:33;;;;;;;11.17;7.47;;;;;;;-141.28;100.00;50538.28;5050017;28;20225;-76
2022/08/28 06:39:03;;;;;;;14.53;6.87;;;;;;;-141.28;100.00;50428.34;5050911;28;20198;-76
2022/08/28 06:41:32;;;;;;;22.87;7.37;;;;;;;-141.28;100.00;50377.31;5050886;28;20224;-75
2022/08/28 06:44:00;;;;;;;15.03;7.63;;;;;;;-141.28;100.00;50363.56;5051162;28;20223;-76
2022/08/28 06:46:32;;;;;;;21.77;7.57;;;;;;;-141.28;100.00;50328.25;5051064;28;20205;-76
2022/08/28 06:49:00;;;;;;;14.50;7.43;;;;;;;-141.28;100.00;50216.38;5050698;28;20195;-78
2022/08/28 06:51:27;;;;;;;17.90;7.50;;;;;;;-141.28;100.00;50173.19;5052822;28;20571;-76
2022/08/28 06:53:56;;;;;;;10.83;6.93;;;;;;;-141.28;100.00;50082.91;5054511;28;20253;-76
2022/08/28 06:56:25;;;;;;;19.57;7.33;;;;;;;-141.28;100.00;50029.91;5053163;28;20199;-76
2022/08/28 06:58:53;;;;;;;17.90;7.67;;;;;;;-141.28;100.00;50090.75;5053977;28;20207;-75
2022/08/28 07:01:22;;;;;;;17.93;7.73;;;;;;;-141.28;100.00;50071.13;5054269;28;20195;-75
2022/08/28 07:03:53;;;;;;;21.93;8.17;;;;;;;-141.28;100.00;50065.25;5053782;28;20288;-77
2022/08/28 07:06:22;;;;;;;13.83;8.90;;;;;;;-141.28;100.00;50075.06;5054377;28;20208;-76
2022/08/28 07:08:50;;;;;;;15.67;9.80;;;;;;;-141.28;100.00;50057.41;5053341;28;20220;-75
2022/08/28 07:11:20;;;;;;;17.67;11.03;;;;;;;-141.28;100.00;50043.66;5053924;28;20203;-75
2022/08/28 07:13:51;;;;;;;27.53;15.10;;;;;;;-141.28;100.00;50400.88;5057206;28;20199;-76
2022/08/28 07:16:19;;;;;;;18.60;9.83;;;;;;;-141.28;100.00;50359.66;5083274;28;20192;-75
2022/08/28 07:18:48;;;;;;;25.90;15.83;;;;;;;-141.28;100.00;50367.50;5110424;28;20203;-75
2022/08/28 07:21:16;;;;;;;24.40;16.93;;;;;;;-141.28;100.00;50375.34;5115276;28;20220;-74
2022/08/28 07:23:44;;;;;;;27.67;11.93;;;;;;;-141.28;100.00;50365.53;5095149;28;20251;-76
2022/08/28 07:26:15;;;;;;;16.13;10.40;;;;;;;-141.28;100.00;50345.91;5093825;28;20195;-76
2022/08/28 07:28:43;;;;;;;27.33;11.17;;;;;;;-141.28;100.00;50281.13;5099656;28;20271;-77
2022/08/28 07:31:14;;;;;;;25.13;10.80;;;;;;;-141.28;100.00;50290.97;5097535;28;20203;-77
2022/08/28 07:33:42;;;;;;;20.47;9.70;;;;;;;-141.28;100.00;50230.13;5093782;28;20205;-78
2022/08/28 07:36:12;;;;;;;16.60;8.60;;;;;;;-141.28;100.00;50245.81;5106517;28;20202;-76
2022/08/28 07:38:39;;;;;;;22.53;8.33;;;;;;;-141.28;100.00;50212.44;5093634;28;20241;-76
2022/08/28 07:41:13;;;;;;;13.83;7.80;;;;;;;-141.28;100.00;50157.50;5106813;28;20650;-75
2022/08/28 07:46:28;;;;;;;14.43;6.80;;;;;;;-141.28;100.00;49890.56;5073714;28;20622;-73
2022/08/28 07:48:56;;;;;;;14.90;5.87;;;;;;;-141.28;100.00;49494.16;5074608;28;20663;-76
2022/08/28 07:51:23;;;;;;;18.10;7.03;;;;;;;-141.28;100.00;49331.31;5074629;28;20196;-76
2022/08/28 07:53:51;;;;;;;12.97;6.83;;;;;;;-141.28;100.00;49280.28;5080374;28;20198;-75
2022/08/28 07:56:18;;;;;;;18.00;7.43;;;;;;;-141.28;100.00;49290.09;5080049;28;20193;-76
2022/08/28 07:58:47;;;;;;;16.37;7.30;;;;;;;-141.28;100.00;49260.66;5086916;28;20235;-75
2022/08/28 08:01:15;;;;;;;18.13;7.17;;;;;;;-141.28;100.00;49203.75;5054961;28;20226;-76
2022/08/28 08:03:45;;;;;;;21.27;7.53;;;;;;;-141.28;100.00;49062.50;5088551;28;20306;-75
2022/08/28 08:06:14;;;;;;;18.20;6.57;;;;;;;-141.28;100.00;48946.72;5120410;28;20227;-76
2022/08/28 08:08:44;;;;;;;16.50;7.00;;;;;;;-141.28;100.00;48878.06;5101492;28;20252;-77
2022/08/28 08:11:13;;;;;;;17.80;7.77;;;;;;;-141.28;100.00;48868.25;5113132;28;20282;-76
2022/08/28 08:13:42;;;;;;;14.93;7.03;;;;;;;-141.28;100.00;48819.22;5093316;28;20199;-75
2022/08/28 08:16:11;;;;;;;15.30;6.43;;;;;;;-141.28;100.00;48883.94;5095092;28;20203;-75
2022/08/28 08:18:38;;;;;;;28.43;7.23;;;;;;;-141.28;100.00;48776.03;5075839;28;20313;-76
2022/08/28 08:21:10;;;;;;;20.07;7.20;;;;;;;-141.28;100.00;48772.13;5105452;28;20520;-76
2022/08/28 08:23:44;;;;;;;15.47;7.27;;;;;;;-141.28;100.00;48874.13;5106219;28;20256;-74
2022/08/28 08:26:15;;;;;;;13.80;7.23;;;;;;;-141.28;100.00;48756.44;5095689;28;20209;-75
2022/08/28 08:28:43;;;;;;;14.33;6.73;;;;;;;-141.28;100.00;48736.81;5077562;28;20276;-75
2022/08/28 08:31:14;;;;;;;17.30;6.80;;;;;;;-141.28;100.00;48732.88;5098692;28;20204;-76
2022/08/28 08:33:44;;;;;;;22.97;6.70;;;;;;;-141.28;100.00;48725.03;5101926;28;20210;-76
2022/08/28 08:36:15;;;;;;;16.23;6.57;;;;;;;-141.28;100.00;48746.63;5092072;28;20593;-76
2022/08/28 08:38:43;;;;;;;14.80;7.00;;;;;;;-141.28;100.00;48746.63;5104052;28;20662;-75
2022/08/28 08:41:20;;;;;;;14.23;5.73;;;;;;;-141.28;100.00;48756.44;5092965;28;20712;-75
2022/08/28 08:43:56;;;;;;;16.60;6.50;;;;;;;-141.28;100.00;48756.44;5107185;28;20232;-75
2022/08/28 08:46:31;;;;;;;22.53;6.80;;;;;;;-141.28;100.00;48725.03;5104704;28;20202;-76
2022/08/28 08:49:02;;;;;;;14.30;5.67;;;;;;;-141.28;100.00;48734.84;5090214;28;20192;-76
2022/08/28 08:51:41;;;;;;;17.97;6.17;;;;;;;-141.28;100.00;48728.97;5092851;28;20192;-75
2022/08/28 08:54:12;;;;;;;18.87;6.40;;;;;;;-141.28;100.00;48721.13;5094089;28;20191;-74
2022/08/28 08:56:42;;;;;;;19.17;5.87;;;;;;;-141.28;100.00;48709.34;5113172;28;20214;-76
2022/08/28 08:59:15;;;;;;;16.77;5.87;;;;;;;-141.28;100.00;48701.50;5095584;28;20651;-76
2022/08/28 09:01:51;;;;;;;15.80;6.23;;;;;;;-141.28;100.00;48701.50;5092144;28;20677;-75
2022/08/28 09:04:35;;;;;;;11.60;6.07;;;;;;;-141.28;100.00;48697.56;5091906;28;20219;-75
2022/08/28 09:07:10;;;;;;;14.50;5.97;;;;;;;-141.28;100.00;48709.34;5081083;28;20199;-76
2022/08/28 09:09:41;;;;;;;15.63;6.00;;;;;;;-141.28;100.00;48695.59;5094395;28;20223;-75
2022/08/28 09:12:13;;;;;;;14.67;6.10;;;;;;;-141.28;100.00;48615.19;5111294;28;20202;-77
2022/08/28 09:14:48;;;;;;;8.80;5.63;;;;;;;-141.28;100.00;48709.34;5090559;28;20562;-77
2022/08/28 09:17:19;;;;;;;19.13;6.60;;;;;;;-141.28;100.00;48685.81;5085544;28;20203;-76
2022/08/28 09:19:47;;;;;;;15.47;6.17;;;;;;;-141.28;100.00;48681.88;5097792;28;20205;-76
2022/08/28 09:22:17;;;;;;;19.17;6.67;;;;;;;-141.28;100.00;48674.03;5094760;28;20204;-76
2022/08/28 09:24:47;;;;;;;14.73;6.50;;;;;;;-141.28;100.00;49113.50;5091724;28;20224;-77
2022/08/28 09:27:25;;;;;;;16.23;6.97;;;;;;;-141.28;100.00;48652.44;5086584;28;20234;-76
2022/08/28 09:29:57;;;;;;;16.17;6.00;;;;;;;-141.28;100.00;48658.34;5105375;28;20201;-79
2022/08/28 09:32:31;;;;;;;14.70;6.00;;;;;;;-141.28;100.00;48677.94;5105000;28;20209;-76
2022/08/28 09:35:06;;;;;;;15.67;6.00;;;;;;;-141.28;100.00;48670.09;5079518;28;20240;-75
2022/08/28 09:37:36;;;;;;;26.87;6.23;;;;;;;-141.28;100.00;48591.63;5091230;28;20225;-76
2022/08/28 09:40:23;;;;;;;13.03;5.77;;;;;;;-141.28;100.00;48658.34;5082273;28;20190;-74
2022/08/28 09:45:54;;;;;;;17.73;6.03;;;;;;;-141.28;88.38;48613.22;5075622;28;20584;-74
2022/08/28 09:48:23;;;;;;;18.67;5.80;;;;;;;-141.28;81.42;48640.69;5080205;28;20657;-76
2022/08/28 09:51:02;;;;;;;23.37;5.93;;;;;;;-141.28;81.64;48626.94;5071757;28;20201;-77
2022/08/28 09:53:37;;;;;;;14.70;5.80;;;;;;;-141.28;83.57;48615.19;5071768;28;20200;-77
2022/08/28 09:56:17;;;;;;;16.17;5.83;;;;;;;-141.28;89.87;48605.38;5071331;28;20210;-75
2022/08/28 09:58:49;;;;;;;13.20;6.03;;;;;;;-141.28;81.33;48597.53;5072197;28;20558;-77
2022/08/28 10:01:35;;;;;;;13.17;6.00;;;;;;;-141.28;81.30;48609.28;5071474;28;20640;-78
2022/08/28 10:04:28;;;;;;;18.83;5.27;;;;;;;-141.28;85.01;48617.13;5071945;28;20231;-75
2022/08/28 10:06:59;;;;;;;20.70;6.20;;;;;;;-141.28;83.58;48640.69;5087412;28;20194;-75
2022/08/28 10:09:36;;;;;;;11.87;5.30;;;;;;;-141.28;82.81;48623.03;5115099;28;20203;-77
2022/08/28 10:12:14;;;;;;;13.77;5.27;;;;;;;-141.28;87.11;48619.09;5089521;28;20229;-78
2022/08/28 10:14:52;;;;;;;15.83;5.47;;;;;;;-141.28;80.64;48623.03;5084994;28;20333;-78
2022/08/28 10:17:31;;;;;;;11.23;5.77;;;;;;;-141.28;84.11;48646.56;5081296;28;20687;-75
2022/08/28 10:20:08;;;;;;;18.87;6.20;;;;;;;-141.28;84.31;48628.91;5081500;28;20289;-77
2022/08/28 10:22:44;;;;;;;11.33;5.53;;;;;;;-141.28;82.66;48607.31;5089469;28;20267;-77
2022/08/28 10:25:28;;;;;;;17.33;6.10;;;;;;;-141.28;76.12;48534.75;5079904;28;20233;-78
2022/08/28 10:28:12;;;;;;;9.27;5.63;;;;;;;-141.28;71.34;48558.28;5075286;28;20209;-77
2022/08/28 10:30:46;;;;;;;11.53;5.97;;;;;;;-141.28;65.40;48552.41;5087428;28;20205;-78
2022/08/28 10:33:43;;;;;;;8.43;5.63;;;;;;;-141.28;66.81;48540.63;5075094;28;20205;-77
2022/08/28 10:36:18;;;;;;;15.20;6.37;;;;;;;-141.28;62.17;48532.78;5073978;28;20207;-78
2022/08/28 10:38:52;;;;;;;21.63;5.87;;;;;;;-141.28;62.25;48552.41;5102683;28;20192;-77
2022/08/28 10:41:41;;;;;;;13.10;5.63;;;;;;;-141.28;61.79;48521.00;5100713;28;20545;-77
2022/08/28 10:44:14;;;;;;;13.20;5.47;;;;;;;-141.28;61.76;48550.44;5112662;28;20219;-76
2022/08/28 10:46:47;;;;;;;10.33;5.87;;;;;;;-141.28;63.16;48579.88;5114191;28;20257;-75
2022/08/28 10:49:25;;;;;;;11.57;5.90;;;;;;;-141.28;64.07;48564.16;5107949;28;20194;-76
2022/08/28 10:51:55;;;;;;;15.07;5.50;;;;;;;-141.28;62.37;48560.25;5094237;28;20678;-76
2022/08/28 10:54:29;;;;;;;17.63;6.53;;;;;;;-141.28;63.20;48532.78;5106427;28;20577;-76
2022/08/28 10:57:05;;;;;;;13.30;5.57;;;;;;;-141.28;58.99;48528.84;5108471;28;20205;-77
2022/08/28 10:59:36;;;;;;;12.07;5.73;;;;;;;-141.28;56.49;48544.56;5103441;28;20294;-76
2022/08/28 11:02:07;;;;;;;9.23;5.37;;;;;;;-141.28;51.92;48532.78;5106926;28;20195;-77
2022/08/28 11:04:35;;;;;;;12.60;5.53;;;;;;;-141.28;51.13;48530.81;5093873;28;20226;-77
2022/08/28 11:07:07;;;;;;;11.87;5.27;;;;;;;-141.28;51.47;48501.41;5097657;28;20200;-76
2022/08/28 11:09:38;;;;;;;12.00;5.33;;;;;;;-141.28;50.25;48477.84;5101596;28;20197;-74
2022/08/28 11:12:28;;;;;;;14.37;5.20;;;;;;;-141.28;47.13;48456.28;5107377;28;20203;-77
2022/08/28 11:14:56;;;;;;;11.53;5.60;;;;;;;-141.28;49.01;48507.28;5093623;28;20241;-76
2022/08/28 11:17:40;;;;;;;15.50;5.63;;;;;;;-141.28;51.60;48466.09;5093747;28;20574;-77
2022/08/28 11:20:15;;;;;;;9.57;5.30;;;;;;;-141.28;50.72;48517.09;5106160;28;20199;-76
2022/08/28 11:22:48;;;;;;;11.87;5.43;;;;;;;-141.28;49.97;48497.47;5105831;28;20197;-77
2022/08/28 11:25:20;;;;;;;12.00;5.60;;;;;;;-141.28;50.83;48497.47;5088570;28;20226;-76